createdAt,value
2023-07-05T00:01:29.577Z,91.86
2023-07-05T00:03:56.933Z,91.41
2023-07-05T00:06:24.340Z,90.89
2023-07-05T00:08:52.388Z,91.53
2023-07-05T00:11:20.876Z,91.71
2023-07-05T00:13:47.878Z,90.51
2023-07-05T00:16:14.893Z,90.01
2023-07-05T00:18:42.302Z,89.75
2023-07-05T00:21:13.650Z,89.55
2023-07-05T00:23:45.409Z,89.52
2023-07-05T00:26:12.430Z,89.50
2023-07-05T00:28:39.501Z,89.79
2023-07-05T00:31:07.305Z,89.55
2023-07-05T00:33:34.367Z,89.41
2023-07-05T00:36:01.395Z,88.85
2023-07-05T00:38:28.403Z,89.16
2023-07-05T00:40:55.348Z,88.83
2023-07-05T00:43:22.333Z,89.78
2023-07-05T00:45:55.825Z,89.29
2023-07-05T00:48:45.105Z,89.75
2023-07-05T00:51:22.085Z,89.37
2023-07-05T00:53:49.148Z,89.22
2023-07-05T00:56:24.116Z,89.70
2023-07-05T00:58:55.340Z,89.55
2023-07-05T01:01:26.246Z,90.84
2023-07-05T01:03:55.769Z,91.38
2023-07-05T01:06:25.398Z,91.61
2023-07-05T01:08:53.231Z,92.28
2023-07-05T01:11:20.096Z,93.18
2023-07-05T01:13:58.288Z,92.91
2023-07-05T01:16:59.431Z,92.27
2023-07-05T01:19:47.391Z,92.19
2023-07-05T01:22:38.486Z,92.30
2023-07-05T01:25:08.568Z,92.94
2023-07-05T01:27:58.053Z,92.79
2023-07-05T01:30:43.731Z,93.07
2023-07-05T01:33:18.903Z,93.69
2023-07-05T01:35:52.784Z,93.74
2023-07-05T01:38:20.191Z,93.60
2023-07-05T01:40:51.435Z,92.94
2023-07-05T01:43:18.887Z,92.92
2023-07-05T01:46:00.549Z,93.16
2023-07-05T01:48:49.483Z,93.16
2023-07-05T01:51:40.802Z,92.29
2023-07-05T01:54:24.827Z,92.63
2023-07-05T01:57:01.618Z,92.30
2023-07-05T01:59:34.721Z,92.30
2023-07-05T02:02:04.530Z,92.87
2023-07-05T02:04:36.960Z,93.39
2023-07-05T02:07:10.140Z,92.71
2023-07-05T02:09:40.859Z,93.04
2023-07-05T02:12:10.498Z,93.50
2023-07-05T02:14:39.070Z,92.97
2023-07-05T02:17:05.964Z,92.65
2023-07-05T02:19:32.947Z,92.57
2023-07-05T02:22:00.133Z,92.32
2023-07-05T02:24:27.142Z,91.19
2023-07-05T02:26:56.977Z,91.76
2023-07-05T02:29:24.338Z,91.87
2023-07-05T02:31:51.233Z,91.35
2023-07-05T02:34:18.945Z,91.29
2023-07-05T02:36:45.851Z,91.50
2023-07-05T02:39:13.177Z,91.56
2023-07-05T02:41:40.989Z,91.22
2023-07-05T02:44:08.019Z,91.38
2023-07-05T02:46:34.989Z,91.52
2023-07-05T02:49:01.953Z,90.42
2023-07-05T02:51:28.979Z,90.57
2023-07-05T02:53:56.684Z,89.98
2023-07-05T02:56:23.545Z,90.21
2023-07-05T02:58:50.731Z,89.30
2023-07-05T03:01:18.003Z,89.20
2023-07-05T03:03:45.227Z,87.86
2023-07-05T03:06:12.090Z,87.70
2023-07-05T03:08:38.996Z,88.01
2023-07-05T03:11:05.938Z,87.70
2023-07-05T03:13:34.886Z,86.92
2023-07-05T03:16:02.908Z,86.91
2023-07-05T03:18:30.523Z,87.70
2023-07-05T03:20:57.561Z,87.75
2023-07-05T03:23:24.904Z,88.41
2023-07-05T03:25:59.845Z,87.85
2023-07-05T03:28:30.395Z,88.70
2023-07-05T03:31:05.249Z,88.45
2023-07-05T03:33:33.697Z,88.10
2023-07-05T03:36:02.874Z,88.58
2023-07-05T03:38:30.707Z,89.08
2023-07-05T03:41:05.728Z,89.21
2023-07-05T03:43:36.892Z,89.59
2023-07-05T03:46:06.557Z,89.97
2023-07-05T03:48:39.200Z,90.28
2023-07-05T03:51:07.935Z,90.95
2023-07-05T03:53:35.152Z,92.00
2023-07-05T03:56:04.255Z,91.86
2023-07-05T03:58:31.978Z,91.71
2023-07-05T04:01:19.262Z,92.95
2023-07-05T04:03:48.907Z,93.27
2023-07-05T04:06:17.462Z,93.42
2023-07-05T04:08:45.024Z,94.01
2023-07-05T04:11:12.203Z,94.51
2023-07-05T04:13:40.009Z,94.48
2023-07-05T04:16:12.813Z,95.17
2023-07-05T04:18:41.091Z,95.29
2023-07-05T04:21:08.767Z,95.33
2023-07-05T04:23:36.257Z,95.40
2023-07-05T04:26:07.579Z,95.52
2023-07-05T04:28:36.250Z,95.74
2023-07-05T04:31:04.238Z,95.69
2023-07-05T04:33:31.115Z,95.34
2023-07-05T04:36:01.043Z,95.66
2023-07-05T04:38:28.847Z,95.67
2023-07-05T04:40:58.373Z,95.91
2023-07-05T04:43:26.829Z,96.07
2023-07-05T04:45:58.674Z,96.11
2023-07-05T04:48:30.058Z,96.18
2023-07-05T04:50:59.212Z,95.82
2023-07-05T04:53:28.877Z,95.36
2023-07-05T04:55:58.653Z,95.52
2023-07-05T04:58:26.773Z,95.63
2023-07-05T05:00:54.493Z,95.63
2023-07-05T05:03:23.954Z,95.39
2023-07-05T05:05:55.026Z,95.04
2023-07-05T05:08:23.694Z,95.84
2023-07-05T05:10:56.261Z,95.66
2023-07-05T05:13:24.177Z,95.71
2023-07-05T05:15:52.415Z,95.98
2023-07-05T05:18:19.886Z,95.86
2023-07-05T05:20:47.538Z,96.11
2023-07-05T05:23:14.562Z,96.36
2023-07-05T05:25:45.992Z,96.05
2023-07-05T05:28:14.140Z,96.27
2023-07-05T05:30:45.513Z,95.64
2023-07-05T05:33:14.952Z,95.95
2023-07-05T05:35:50.994Z,95.82
2023-07-05T05:38:19.865Z,96.16
2023-07-05T05:40:50.018Z,96.65
2023-07-05T05:43:17.772Z,95.91
2023-07-05T05:45:44.736Z,95.75
2023-07-05T05:48:11.965Z,96.17
2023-07-05T05:50:38.880Z,96.19
2023-07-05T05:53:06.020Z,96.44
2023-07-05T05:55:33.114Z,96.20
2023-07-05T05:58:00.102Z,95.64
2023-07-05T06:00:27.105Z,95.14
2023-07-05T06:02:54.810Z,94.67
2023-07-05T06:05:21.849Z,94.80
2023-07-05T06:07:48.817Z,95.30
2023-07-05T06:10:15.900Z,94.83
2023-07-05T06:12:44.173Z,94.81
2023-07-05T06:15:13.972Z,94.85
2023-07-05T06:17:41.449Z,95.25
2023-07-05T06:20:12.315Z,96.10
2023-07-05T06:22:40.147Z,95.71
2023-07-05T06:25:08.274Z,96.44
2023-07-05T06:27:35.673Z,96.27
2023-07-05T06:30:03.181Z,96.37
2023-07-05T06:32:30.491Z,97.09
2023-07-05T06:34:57.976Z,97.09
2023-07-05T06:37:25.145Z,97.64
2023-07-05T06:39:52.159Z,97.66
2023-07-05T06:42:19.194Z,97.63
2023-07-05T06:44:46.024Z,97.90
2023-07-05T06:47:13.398Z,97.77
2023-07-05T06:49:44.041Z,97.81
2023-07-05T06:52:11.212Z,97.69
2023-07-05T06:54:38.254Z,98.34
2023-07-05T06:57:06.024Z,97.86
2023-07-05T06:59:34.185Z,97.76
2023-07-05T07:02:01.224Z,98.02
2023-07-05T07:04:28.822Z,97.97
2023-07-05T07:06:55.824Z,98.12
2023-07-05T07:09:22.705Z,98.27
2023-07-05T07:11:49.432Z,97.95
2023-07-05T07:14:16.263Z,98.44
2023-07-05T07:16:43.461Z,98.55
2023-07-05T07:19:10.502Z,98.24
2023-07-05T07:21:38.641Z,98.14
2023-07-05T07:24:06.356Z,97.83
2023-07-05T07:26:33.290Z,97.50
2023-07-05T07:29:00.174Z,97.20
2023-07-05T07:31:32.492Z,97.31
2023-07-05T07:34:06.884Z,96.55
2023-07-05T07:36:35.554Z,96.68
2023-07-05T07:39:02.869Z,96.29
2023-07-05T07:41:35.200Z,96.25
2023-07-05T07:44:05.643Z,95.70
2023-07-05T07:46:34.126Z,92.92
2023-07-05T07:49:02.994Z,91.48
2023-07-05T07:51:39.140Z,90.80
2023-07-05T07:54:17.658Z,90.39
2023-07-05T07:56:46.525Z,88.36
2023-07-05T07:59:14.649Z,88.56
2023-07-05T08:01:43.081Z,88.47
2023-07-05T08:04:12.584Z,89.03
2023-07-05T08:06:45.850Z,88.65
2023-07-05T08:09:22.545Z,87.29
2023-07-05T08:11:49.805Z,87.67
2023-07-05T08:14:19.486Z,86.84
2023-07-05T08:16:47.668Z,87.21
2023-07-05T08:19:16.408Z,87.64
2023-07-05T08:21:45.358Z,88.68
2023-07-05T08:24:25.857Z,88.89
2023-07-05T08:26:53.331Z,85.27
2023-07-05T08:29:20.522Z,83.18
2023-07-05T08:31:49.646Z,79.94
2023-07-05T08:34:17.002Z,80.67
2023-07-05T08:36:47.484Z,70.25
2023-07-05T08:39:15.609Z,54.75
2023-07-05T08:41:45.676Z,57.26
2023-07-05T08:44:40.842Z,52.24
2023-07-05T08:47:23.346Z,43.04
2023-07-05T08:50:08.507Z,49.27
2023-07-05T08:52:44.896Z,48.88
2023-07-05T08:55:22.541Z,42.98
2023-07-05T08:57:55.662Z,38.84
2023-07-05T09:00:29.831Z,35.81
2023-07-05T09:02:57.320Z,34.09
2023-07-05T09:05:40.870Z,33.44
2023-07-05T09:08:30.907Z,34.72
2023-07-05T09:11:13.274Z,31.79
2023-07-05T09:13:43.881Z,34.11
2023-07-05T09:16:16.836Z,41.43
2023-07-05T09:19:06.542Z,45.75
2023-07-05T09:21:48.318Z,53.59
2023-07-05T09:24:21.643Z,56.49
2023-07-05T09:27:12.361Z,44.27
2023-07-05T09:30:10.844Z,33.17
2023-07-05T09:32:44.288Z,29.85
2023-07-05T09:35:19.824Z,28.80
2023-07-05T09:38:03.041Z,32.25
2023-07-05T09:40:39.682Z,27.28
2023-07-05T09:43:13.649Z,25.75
2023-07-05T09:45:40.968Z,24.15
2023-07-05T09:48:12.769Z,22.89
2023-07-05T09:50:46.809Z,23.83
2023-07-05T09:53:39.658Z,30.60
2023-07-05T09:56:11.219Z,34.59
2023-07-05T09:58:40.122Z,29.27
2023-07-05T10:01:16.892Z,28.00
2023-07-05T10:03:56.657Z,25.85
2023-07-05T10:06:28.679Z,24.34
2023-07-05T10:09:00.685Z,23.88
2023-07-05T10:11:35.031Z,24.57
2023-07-05T10:14:14.118Z,25.90
2023-07-05T10:16:47.280Z,31.15
2023-07-05T10:19:21.174Z,35.69
2023-07-05T10:21:49.917Z,38.22
2023-07-05T10:24:21.808Z,41.62
2023-07-05T10:27:04.344Z,43.62
2023-07-05T10:29:32.628Z,44.74
2023-07-05T10:32:01.254Z,48.09
2023-07-05T10:34:28.991Z,49.07
2023-07-05T10:36:56.378Z,45.17
2023-07-05T10:39:27.689Z,31.86
2023-07-05T10:42:00.464Z,34.54
2023-07-05T10:44:36.109Z,34.29
2023-07-05T10:47:06.577Z,38.40
2023-07-05T10:49:35.853Z,38.34
2023-07-05T10:52:11.084Z,40.91
2023-07-05T10:54:50.579Z,42.56
2023-07-05T10:57:24.988Z,44.15
2023-07-05T10:59:59.674Z,46.48
2023-07-05T11:02:51.387Z,48.96
2023-07-05T11:05:28.996Z,46.43
2023-07-05T11:08:01.267Z,39.30
2023-07-05T11:10:30.718Z,28.86
2023-07-05T11:12:58.265Z,25.33
2023-07-05T11:15:25.782Z,26.22
2023-07-05T11:17:53.007Z,21.59
2023-07-05T11:20:41.045Z,25.82
2023-07-05T11:23:13.011Z,27.33
2023-07-05T11:26:02.057Z,27.17
2023-07-05T11:28:40.694Z,32.67
2023-07-05T11:31:09.496Z,37.93
2023-07-05T11:33:36.804Z,39.44
2023-07-05T11:36:30.437Z,43.75
2023-07-05T11:39:01.446Z,45.90
2023-07-05T11:41:31.357Z,47.83
2023-07-05T11:44:23.665Z,49.24
2023-07-05T11:46:50.894Z,50.81
2023-07-05T11:49:30.462Z,48.67
2023-07-05T11:52:21.344Z,48.93
2023-07-05T11:55:10.154Z,48.24
2023-07-05T11:57:43.141Z,47.60
2023-07-05T12:00:20.206Z,48.80
2023-07-05T12:02:47.889Z,48.14
2023-07-05T12:05:21.260Z,50.02
2023-07-05T12:07:56.725Z,50.03
2023-07-05T12:10:28.376Z,49.52
2023-07-05T12:12:55.307Z,50.76
2023-07-05T12:15:22.592Z,51.18
2023-07-05T12:17:49.716Z,52.09
2023-07-05T12:20:41.040Z,53.31
2023-07-05T12:23:15.179Z,53.09
2023-07-05T12:25:47.123Z,53.82
2023-07-05T12:28:25.636Z,53.45
2023-07-05T12:31:04.731Z,50.23
2023-07-05T12:33:38.236Z,52.22
2023-07-05T12:36:05.264Z,53.43
2023-07-05T12:38:35.106Z,54.08
2023-07-05T12:41:03.414Z,54.91
2023-07-05T12:43:32.495Z,53.15
2023-07-05T12:46:14.236Z,50.88
2023-07-05T12:48:42.495Z,48.43
2023-07-05T12:51:21.620Z,48.45
2023-07-05T12:53:52.596Z,47.75
2023-07-05T12:56:23.894Z,48.50
2023-07-05T12:58:59.164Z,49.10
2023-07-05T13:01:32.773Z,50.41
2023-07-05T13:04:14.226Z,51.86
2023-07-05T13:06:42.094Z,52.84
2023-07-05T13:09:09.299Z,52.86
2023-07-05T13:11:37.674Z,53.63
2023-07-05T13:14:11.434Z,55.00
2023-07-05T13:16:52.419Z,54.95
2023-07-05T13:19:19.464Z,53.67
2023-07-05T13:21:49.140Z,54.39
2023-07-05T13:24:28.218Z,54.68
2023-07-05T13:26:58.425Z,55.22
2023-07-05T13:29:34.494Z,55.93
2023-07-05T13:32:01.651Z,56.85
2023-07-05T13:34:28.908Z,56.72
2023-07-05T13:37:06.664Z,56.61
2023-07-05T13:39:34.237Z,56.55
2023-07-05T13:42:03.581Z,56.54
2023-07-05T13:44:31.342Z,55.80
2023-07-05T13:46:59.496Z,54.08
2023-07-05T13:49:28.270Z,54.59
2023-07-05T13:52:00.979Z,54.11
2023-07-05T13:54:28.447Z,53.61
2023-07-05T13:56:57.900Z,54.32
2023-07-05T13:59:25.393Z,53.89
2023-07-05T14:01:52.475Z,53.49
2023-07-05T14:04:19.891Z,53.66
2023-07-05T14:06:47.092Z,53.89
2023-07-05T14:09:14.547Z,54.57
2023-07-05T14:11:43.131Z,56.93
2023-07-05T14:14:13.643Z,57.75
2023-07-05T14:16:40.899Z,58.83
2023-07-05T14:19:08.254Z,59.34
2023-07-05T14:21:39.340Z,59.73
2023-07-05T14:24:11.229Z,60.56
2023-07-05T14:26:38.375Z,59.67
2023-07-05T14:29:05.865Z,59.29
2023-07-05T14:31:33.415Z,58.66
2023-07-05T14:34:01.068Z,59.70
2023-07-05T14:36:28.653Z,59.88
2023-07-05T14:38:55.776Z,59.60
2023-07-05T14:41:25.904Z,58.49
2023-07-05T14:43:54.072Z,59.41
2023-07-05T14:46:21.552Z,58.36
2023-07-05T14:48:49.853Z,57.74
2023-07-05T14:51:26.019Z,57.39
2023-07-05T14:53:53.959Z,57.50
2023-07-05T14:56:20.853Z,56.83
2023-07-05T14:58:47.808Z,56.21
2023-07-05T15:01:18.431Z,57.59
2023-07-05T15:03:50.543Z,57.51
2023-07-05T15:06:20.606Z,57.52
2023-07-05T15:08:48.156Z,57.69
2023-07-05T15:11:15.313Z,58.04
2023-07-05T15:13:45.565Z,56.61
2023-07-05T15:16:18.158Z,53.90
2023-07-05T15:18:45.142Z,54.01
2023-07-05T15:21:20.675Z,53.36
2023-07-05T15:23:53.116Z,53.21
2023-07-05T15:26:21.613Z,54.42
2023-07-05T15:28:49.111Z,53.95
2023-07-05T15:31:17.361Z,54.71
2023-07-05T15:33:44.438Z,54.73
2023-07-05T15:36:19.634Z,55.38
2023-07-05T15:38:47.526Z,55.13
2023-07-05T15:41:14.749Z,56.57
2023-07-05T15:43:41.862Z,56.85
2023-07-05T15:46:11.307Z,57.07
2023-07-05T15:48:40.313Z,58.66
2023-07-05T15:51:09.644Z,61.86
2023-07-05T15:53:36.574Z,61.79
2023-07-05T15:56:04.327Z,66.55
2023-07-05T15:58:31.860Z,72.06
2023-07-05T16:01:02.728Z,75.96
2023-07-05T16:03:30.703Z,78.98
2023-07-05T16:05:57.658Z,79.88
2023-07-05T16:08:25.911Z,81.56
2023-07-05T16:10:55.493Z,81.51
2023-07-05T16:13:22.838Z,82.39
2023-07-05T16:16:00.959Z,82.04
2023-07-05T16:18:28.107Z,81.73
2023-07-05T16:21:00.161Z,82.98
2023-07-05T16:23:28.368Z,82.35
2023-07-05T16:25:57.845Z,81.48
2023-07-05T16:28:24.935Z,80.80
2023-07-05T16:30:52.298Z,81.78
2023-07-05T16:33:19.867Z,81.77
2023-07-05T16:35:56.108Z,81.66
2023-07-05T16:38:24.447Z,83.40
2023-07-05T16:40:55.987Z,81.34
2023-07-05T16:43:26.118Z,81.82
2023-07-05T16:45:56.088Z,81.49
2023-07-05T16:48:22.948Z,81.30
2023-07-05T16:50:51.669Z,82.68
2023-07-05T16:53:20.192Z,82.21
2023-07-05T16:55:59.022Z,82.28
2023-07-05T16:58:27.211Z,81.65
2023-07-05T17:01:14.557Z,80.72
2023-07-05T17:03:42.341Z,79.21
2023-07-05T17:06:11.450Z,76.93
2023-07-05T17:08:40.083Z,76.06
2023-07-05T17:11:09.584Z,74.07
2023-07-05T17:13:37.474Z,73.93
2023-07-05T17:16:05.277Z,72.72
2023-07-05T17:18:34.194Z,71.42
2023-07-05T17:21:05.440Z,70.88
2023-07-05T17:23:32.935Z,71.80
2023-07-05T17:26:05.616Z,70.98
2023-07-05T17:28:32.594Z,73.08
2023-07-05T17:31:07.698Z,73.87
2023-07-05T17:33:36.021Z,74.74
2023-07-05T17:36:05.013Z,74.59
2023-07-05T17:38:33.115Z,75.27
2023-07-05T17:41:00.116Z,74.48
2023-07-05T17:43:27.667Z,74.04
2023-07-05T17:46:17.013Z,73.46
2023-07-05T17:48:43.930Z,72.09
2023-07-05T17:51:11.043Z,70.85
2023-07-05T17:53:41.036Z,70.79
2023-07-05T17:56:09.958Z,70.03
2023-07-05T17:58:37.057Z,71.06
2023-07-05T18:01:12.121Z,71.52
2023-07-05T18:03:40.185Z,70.96
2023-07-05T18:06:07.922Z,70.59
2023-07-05T18:08:34.938Z,71.39
2023-07-05T18:11:05.250Z,70.93
2023-07-05T18:13:34.984Z,71.08
2023-07-05T18:16:04.211Z,70.60
2023-07-05T18:18:32.869Z,70.43
2023-07-05T18:21:01.391Z,69.87
2023-07-05T18:23:29.990Z,67.81
2023-07-05T18:25:59.191Z,68.86
2023-07-05T18:28:27.288Z,68.00
2023-07-05T18:31:02.715Z,67.74
2023-07-05T18:33:32.011Z,67.70
2023-07-05T18:35:59.698Z,67.29
2023-07-05T18:38:29.173Z,67.38
2023-07-05T18:41:15.658Z,66.62
2023-07-05T18:43:42.730Z,66.51
2023-07-05T18:46:10.772Z,67.21
2023-07-05T18:48:38.428Z,66.42
2023-07-05T18:51:05.999Z,66.20
2023-07-05T18:53:33.543Z,66.27
2023-07-05T18:56:06.042Z,66.14
2023-07-05T18:58:36.019Z,66.66
2023-07-05T19:01:13.786Z,67.63
2023-07-05T19:03:42.805Z,68.05
2023-07-05T19:06:17.623Z,67.35
2023-07-05T19:08:45.202Z,67.07
2023-07-05T19:11:16.045Z,67.70
2023-07-05T19:13:44.348Z,67.94
2023-07-05T19:16:13.620Z,68.25
2023-07-05T19:18:40.842Z,68.02
2023-07-05T19:21:08.608Z,68.62
2023-07-05T19:23:37.680Z,68.24
2023-07-05T19:26:08.440Z,68.26
2023-07-05T19:28:42.596Z,68.09
2023-07-05T19:31:15.933Z,68.90
2023-07-05T19:33:45.400Z,70.91
2023-07-05T19:36:12.558Z,74.00
2023-07-05T19:38:39.358Z,75.47
2023-07-05T19:41:06.849Z,75.87
2023-07-05T19:43:34.277Z,76.69
2023-07-05T19:46:05.767Z,77.42
2023-07-05T19:48:33.748Z,77.57
2023-07-05T19:51:06.058Z,77.79
2023-07-05T19:53:33.047Z,77.91
2023-07-05T19:55:59.956Z,77.35
2023-07-05T19:58:26.998Z,77.22
2023-07-05T20:00:55.048Z,77.59
2023-07-05T20:03:22.216Z,77.57
2023-07-05T20:05:50.116Z,76.36
2023-07-05T20:11:08.410Z,74.31
2023-07-05T20:13:35.808Z,74.92
2023-07-05T20:16:03.089Z,74.19
2023-07-05T20:18:30.144Z,73.45
2023-07-05T20:21:08.370Z,72.97
2023-07-05T20:23:38.362Z,73.48
2023-07-05T20:26:05.573Z,73.30
2023-07-05T20:28:32.470Z,74.06
2023-07-05T20:30:59.691Z,73.30
2023-07-05T20:33:27.942Z,73.63
2023-07-05T20:36:03.188Z,73.84
2023-07-05T20:38:32.214Z,73.98
2023-07-05T20:40:59.636Z,73.46
2023-07-05T20:43:27.063Z,74.16
2023-07-05T20:46:05.353Z,74.34
2023-07-05T20:48:32.419Z,73.17
2023-07-05T20:51:10.705Z,73.33
2023-07-05T20:53:39.847Z,73.19
2023-07-05T20:56:07.130Z,73.53
2023-07-05T20:58:37.314Z,73.66
2023-07-05T21:01:06.687Z,73.73
2023-07-05T21:03:34.420Z,74.03
2023-07-05T21:06:02.516Z,73.78
2023-07-05T21:08:34.567Z,73.85
2023-07-05T21:11:05.249Z,73.72
2023-07-05T21:13:32.882Z,73.08
2023-07-05T21:16:04.965Z,73.93
2023-07-05T21:18:32.811Z,74.14
2023-07-05T21:21:01.754Z,74.34
2023-07-05T21:23:30.191Z,74.57
2023-07-05T21:26:02.334Z,74.80
2023-07-05T21:28:29.606Z,74.76
2023-07-05T21:30:59.488Z,75.65
2023-07-05T21:33:28.056Z,75.22
2023-07-05T21:35:58.690Z,74.81
2023-07-05T21:38:28.120Z,74.73
2023-07-05T21:41:00.774Z,74.64
2023-07-05T21:43:30.622Z,75.55
2023-07-05T21:45:58.041Z,76.19
2023-07-05T21:48:30.343Z,76.45
2023-07-05T21:50:58.875Z,77.50
2023-07-05T21:53:25.975Z,77.83
2023-07-05T21:56:03.305Z,77.50
2023-07-05T21:58:32.186Z,77.54
2023-07-05T22:01:03.299Z,77.93
2023-07-05T22:03:31.177Z,77.62
2023-07-05T22:05:59.993Z,77.87
2023-07-05T22:08:29.524Z,77.79
2023-07-05T22:10:56.861Z,77.87
2023-07-05T22:13:24.122Z,77.96
2023-07-05T22:15:52.399Z,78.55
2023-07-05T22:18:19.691Z,78.83
2023-07-05T22:20:50.059Z,79.68
2023-07-05T22:23:17.343Z,79.52
2023-07-05T22:25:45.274Z,79.58
2023-07-05T22:28:12.337Z,79.29
2023-07-05T22:30:39.467Z,79.18
2023-07-05T22:33:06.658Z,79.81
2023-07-05T22:35:38.539Z,79.82
2023-07-05T22:38:07.281Z,79.71
2023-07-05T22:40:34.866Z,79.27
2023-07-05T22:43:02.097Z,79.38
2023-07-05T22:45:34.872Z,80.55
2023-07-05T22:48:02.370Z,81.19
2023-07-05T22:50:29.980Z,80.82
2023-07-05T22:52:58.996Z,81.16
2023-07-05T22:55:25.766Z,82.04
2023-07-05T22:57:55.915Z,82.18
2023-07-05T23:00:25.969Z,81.64
2023-07-05T23:02:56.719Z,81.43
2023-07-05T23:05:27.831Z,80.89
2023-07-05T23:07:54.889Z,80.29
2023-07-05T23:10:22.162Z,79.14
2023-07-05T23:12:49.003Z,79.29
2023-07-05T23:15:16.203Z,78.96
2023-07-05T23:17:43.689Z,78.75
2023-07-05T23:20:13.304Z,78.87
2023-07-05T23:22:43.253Z,80.35
2023-07-05T23:25:11.222Z,80.64
2023-07-05T23:27:41.703Z,81.21
2023-07-05T23:30:11.045Z,80.92
2023-07-05T23:32:39.758Z,81.20
2023-07-05T23:35:07.296Z,81.28
2023-07-05T23:37:34.280Z,81.32
2023-07-05T23:40:01.145Z,81.63
2023-07-05T23:42:30.500Z,81.38
2023-07-05T23:44:58.024Z,81.77
2023-07-05T23:47:24.887Z,82.26
2023-07-05T23:49:53.086Z,82.32
2023-07-05T23:52:22.836Z,82.34
2023-07-05T23:54:49.788Z,81.97
2023-07-05T23:57:18.998Z,81.15
2023-07-05T23:59:45.858Z,81.06
